sensor_id;sensor_type;location;lat;lon;timestamp;pressure;altitude;pressure_sealevel;temperature
78917;BMP280;68315;48.608;11.436;2023-04-28T00:02:00;97208.44;;;9.89
78917;BMP280;68315;48.608;11.436;2023-04-28T00:04:25;97201.44;;;9.75
78917;BMP280;68315;48.608;11.436;2023-04-28T00:06:51;97192.00;;;9.58
78917;BMP280;68315;48.608;11.436;2023-04-28T00:09:16;97195.41;;;9.45
78917;BMP280;68315;48.608;11.436;2023-04-28T00:11:44;97200.03;;;9.37
78917;BMP280;68315;48.608;11.436;2023-04-28T00:14:10;97192.91;;;9.28
78917;BMP280;68315;48.608;11.436;2023-04-28T00:16:35;97194.47;;;9.24
78917;BMP280;68315;48.608;11.436;2023-04-28T00:19:00;97195.53;;;9.21
78917;BMP280;68315;48.608;11.436;2023-04-28T00:21:26;97199.31;;;9.18
78917;BMP280;68315;48.608;11.436;2023-04-28T00:23:52;97194.09;;;9.14
78917;BMP280;68315;48.608;11.436;2023-04-28T00:26:18;97193.16;;;9.12
78917;BMP280;68315;48.608;11.436;2023-04-28T00:28:43;97199.66;;;9.09
78917;BMP280;68315;48.608;11.436;2023-04-28T00:31:09;97185.53;;;9.05
78917;BMP280;68315;48.608;11.436;2023-04-28T00:33:36;97190.78;;;9.03
78917;BMP280;68315;48.608;11.436;2023-04-28T00:36:02;97186.31;;;9.00
78917;BMP280;68315;48.608;11.436;2023-04-28T00:38:27;97186.09;;;8.98
78917;BMP280;68315;48.608;11.436;2023-04-28T00:40:52;97184.34;;;9.00
78917;BMP280;68315;48.608;11.436;2023-04-28T00:43:18;97175.28;;;9.05
78917;BMP280;68315;48.608;11.436;2023-04-28T00:45:43;97178.41;;;9.15
78917;BMP280;68315;48.608;11.436;2023-04-28T00:48:08;97179.09;;;9.21
78917;BMP280;68315;48.608;11.436;2023-04-28T00:50:33;97171.25;;;9.25
78917;BMP280;68315;48.608;11.436;2023-04-28T00:52:59;97171.72;;;9.29
78917;BMP280;68315;48.608;11.436;2023-04-28T00:55:25;97169.22;;;9.31
78917;BMP280;68315;48.608;11.436;2023-04-28T00:57:50;97165.22;;;9.32
78917;BMP280;68315;48.608;11.436;2023-04-28T01:00:16;97175.97;;;9.30
78917;BMP280;68315;48.608;11.436;2023-04-28T01:02:41;97170.56;;;9.24
78917;BMP280;68315;48.608;11.436;2023-04-28T01:05:08;97165.44;;;9.15
78917;BMP280;68315;48.608;11.436;2023-04-28T01:07:33;97162.31;;;9.06
78917;BMP280;68315;48.608;11.436;2023-04-28T01:09:59;97159.16;;;9.02
78917;BMP280;68315;48.608;11.436;2023-04-28T01:12:24;97148.22;;;9.02
78917;BMP280;68315;48.608;11.436;2023-04-28T01:14:49;97143.44;;;9.02
78917;BMP280;68315;48.608;11.436;2023-04-28T01:17:15;97146.44;;;9.04
78917;BMP280;68315;48.608;11.436;2023-04-28T01:19:41;97146.09;;;9.08
78917;BMP280;68315;48.608;11.436;2023-04-28T01:22:06;97140.88;;;9.10
78917;BMP280;68315;48.608;11.436;2023-04-28T01:24:33;97144.00;;;9.14
78917;BMP280;68315;48.608;11.436;2023-04-28T01:26:58;97137.75;;;9.19
78917;BMP280;68315;48.608;11.436;2023-04-28T01:29:23;97142.38;;;9.24
78917;BMP280;68315;48.608;11.436;2023-04-28T01:31:49;97140.31;;;9.30
78917;BMP280;68315;48.608;11.436;2023-04-28T01:34:14;97139.25;;;9.33
78917;BMP280;68315;48.608;11.436;2023-04-28T01:36:40;97137.47;;;9.36
78917;BMP280;68315;48.608;11.436;2023-04-28T01:39:05;97138.00;;;9.34
78917;BMP280;68315;48.608;11.436;2023-04-28T01:41:31;97142.53;;;9.31
78917;BMP280;68315;48.608;11.436;2023-04-28T01:43:58;97150.00;;;9.31
78917;BMP280;68315;48.608;11.436;2023-04-28T01:46:24;97148.13;;;9.39
78917;BMP280;68315;48.608;11.436;2023-04-28T01:48:49;97147.00;;;9.48
78917;BMP280;68315;48.608;11.436;2023-04-28T01:51:14;97143.88;;;9.57
78917;BMP280;68315;48.608;11.436;2023-04-28T01:53:40;97146.97;;;9.66
78917;BMP280;68315;48.608;11.436;2023-04-28T01:56:05;97132.50;;;9.79
78917;BMP280;68315;48.608;11.436;2023-04-28T01:58:30;97131.47;;;9.82
78917;BMP280;68315;48.608;11.436;2023-04-28T02:00:55;97132.44;;;9.84
78917;BMP280;68315;48.608;11.436;2023-04-28T02:03:21;97124.94;;;9.85
78917;BMP280;68315;48.608;11.436;2023-04-28T02:05:46;97125.88;;;9.87
78917;BMP280;68315;48.608;11.436;2023-04-28T02:08:11;97118.72;;;9.84
78917;BMP280;68315;48.608;11.436;2023-04-28T02:10:37;97128.41;;;9.85
78917;BMP280;68315;48.608;11.436;2023-04-28T02:13:02;97113.44;;;9.86
78917;BMP280;68315;48.608;11.436;2023-04-28T02:15:27;97112.16;;;9.87
78917;BMP280;68315;48.608;11.436;2023-04-28T02:17:53;97106.44;;;9.85
78917;BMP280;68315;48.608;11.436;2023-04-28T02:20:18;97104.56;;;9.80
78917;BMP280;68315;48.608;11.436;2023-04-28T02:22:43;97120.19;;;9.72
78917;BMP280;68315;48.608;11.436;2023-04-28T02:25:09;97118.59;;;9.64
78917;BMP280;68315;48.608;11.436;2023-04-28T02:27:35;97119.19;;;9.57
78917;BMP280;68315;48.608;11.436;2023-04-28T02:30:04;97125.06;;;9.48
78917;BMP280;68315;48.608;11.436;2023-04-28T02:32:29;97134.66;;;9.41
78917;BMP280;68315;48.608;11.436;2023-04-28T02:34:55;97127.47;;;9.38
78917;BMP280;68315;48.608;11.436;2023-04-28T02:37:21;97126.50;;;9.36
78917;BMP280;68315;48.608;11.436;2023-04-28T02:39:46;97127.75;;;9.34
78917;BMP280;68315;48.608;11.436;2023-04-28T02:42:11;97141.69;;;9.37
78917;BMP280;68315;48.608;11.436;2023-04-28T02:44:37;97120.72;;;9.39
78917;BMP280;68315;48.608;11.436;2023-04-28T02:47:02;97122.22;;;9.40
78917;BMP280;68315;48.608;11.436;2023-04-28T02:49:27;97115.00;;;9.37
78917;BMP280;68315;48.608;11.436;2023-04-28T02:51:53;97121.75;;;9.36
78917;BMP280;68315;48.608;11.436;2023-04-28T02:54:18;97108.56;;;9.34
78917;BMP280;68315;48.608;11.436;2023-04-28T02:56:52;97112.28;;;9.37
78917;BMP280;68315;48.608;11.436;2023-04-28T02:59:18;97112.19;;;9.43
78917;BMP280;68315;48.608;11.436;2023-04-28T03:01:43;97112.72;;;9.41
78917;BMP280;68315;48.608;11.436;2023-04-28T03:04:08;97105.94;;;9.42
78917;BMP280;68315;48.608;11.436;2023-04-28T03:06:33;97112.19;;;9.43
78917;BMP280;68315;48.608;11.436;2023-04-28T03:08:59;97097.97;;;9.44
78917;BMP280;68315;48.608;11.436;2023-04-28T03:11:24;97098.38;;;9.48
78917;BMP280;68315;48.608;11.436;2023-04-28T03:13:49;97081.63;;;9.52
78917;BMP280;68315;48.608;11.436;2023-04-28T03:16:15;97084.81;;;9.69
78917;BMP280;68315;48.608;11.436;2023-04-28T03:18:40;97085.56;;;9.82
78917;BMP280;68315;48.608;11.436;2023-04-28T03:21:05;97078.06;;;9.83
78917;BMP280;68315;48.608;11.436;2023-04-28T03:23:31;97092.84;;;9.80
78917;BMP280;68315;48.608;11.436;2023-04-28T03:25:56;97077.25;;;9.75
78917;BMP280;68315;48.608;11.436;2023-04-28T03:28:21;97063.06;;;9.71
78917;BMP280;68315;48.608;11.436;2023-04-28T03:30:46;97070.66;;;10.04
78917;BMP280;68315;48.608;11.436;2023-04-28T03:33:12;97076.94;;;10.18
78917;BMP280;68315;48.608;11.436;2023-04-28T03:35:37;97086.81;;;10.21
78917;BMP280;68315;48.608;11.436;2023-04-28T03:38:02;97073.31;;;10.23
78917;BMP280;68315;48.608;11.436;2023-04-28T03:40:28;97078.94;;;10.17
78917;BMP280;68315;48.608;11.436;2023-04-28T03:42:53;97076.28;;;10.11
78917;BMP280;68315;48.608;11.436;2023-04-28T03:45:18;97084.63;;;10.06
78917;BMP280;68315;48.608;11.436;2023-04-28T03:47:44;97084.75;;;10.00
78917;BMP280;68315;48.608;11.436;2023-04-28T03:50:09;97076.06;;;9.96
78917;BMP280;68315;48.608;11.436;2023-04-28T03:52:43;97069.94;;;9.90
78917;BMP280;68315;48.608;11.436;2023-04-28T03:55:09;97071.66;;;9.93
78917;BMP280;68315;48.608;11.436;2023-04-28T03:57:34;97069.31;;;9.97
78917;BMP280;68315;48.608;11.436;2023-04-28T04:00:00;97085.78;;;10.10
78917;BMP280;68315;48.608;11.436;2023-04-28T04:02:25;97075.00;;;10.26
78917;BMP280;68315;48.608;11.436;2023-04-28T04:04:51;97091.03;;;10.35
78917;BMP280;68315;48.608;11.436;2023-04-28T04:07:17;97086.91;;;10.28
78917;BMP280;68315;48.608;11.436;2023-04-28T04:09:42;97096.53;;;10.22
78917;BMP280;68315;48.608;11.436;2023-04-28T04:12:07;97092.75;;;10.11
78917;BMP280;68315;48.608;11.436;2023-04-28T04:14:33;97090.63;;;10.04
78917;BMP280;68315;48.608;11.436;2023-04-28T04:16:58;97080.50;;;9.99
78917;BMP280;68315;48.608;11.436;2023-04-28T04:19:24;97075.34;;;10.09
78917;BMP280;68315;48.608;11.436;2023-04-28T04:21:51;97076.47;;;10.27
78917;BMP280;68315;48.608;11.436;2023-04-28T04:24:16;97070.97;;;10.27
78917;BMP280;68315;48.608;11.436;2023-04-28T04:26:41;97052.59;;;10.35
78917;BMP280;68315;48.608;11.436;2023-04-28T04:29:07;97052.31;;;10.46
78917;BMP280;68315;48.608;11.436;2023-04-28T04:31:32;97039.78;;;10.50
78917;BMP280;68315;48.608;11.436;2023-04-28T04:33:57;97044.63;;;10.44
78917;BMP280;68315;48.608;11.436;2023-04-28T04:36:23;97052.59;;;10.35
78917;BMP280;68315;48.608;11.436;2023-04-28T04:38:48;97058.72;;;10.28
78917;BMP280;68315;48.608;11.436;2023-04-28T04:41:13;97055.88;;;10.20
78917;BMP280;68315;48.608;11.436;2023-04-28T04:43:39;97054.72;;;10.16
78917;BMP280;68315;48.608;11.436;2023-04-28T04:46:04;97055.03;;;10.12
78917;BMP280;68315;48.608;11.436;2023-04-28T04:48:30;97058.97;;;10.17
78917;BMP280;68315;48.608;11.436;2023-04-28T04:50:55;97053.13;;;10.20
78917;BMP280;68315;48.608;11.436;2023-04-28T04:53:20;97047.50;;;10.39
78917;BMP280;68315;48.608;11.436;2023-04-28T04:55:49;97041.06;;;10.36
78917;BMP280;68315;48.608;11.436;2023-04-28T04:58:15;97036.03;;;10.27
78917;BMP280;68315;48.608;11.436;2023-04-28T05:00:40;97052.81;;;10.24
78917;BMP280;68315;48.608;11.436;2023-04-28T05:03:05;97049.09;;;10.21
78917;BMP280;68315;48.608;11.436;2023-04-28T05:05:31;97042.16;;;10.20
78917;BMP280;68315;48.608;11.436;2023-04-28T05:07:56;97046.19;;;10.19
78917;BMP280;68315;48.608;11.436;2023-04-28T05:10:23;97049.47;;;10.18
78917;BMP280;68315;48.608;11.436;2023-04-28T05:12:48;97036.66;;;10.20
78917;BMP280;68315;48.608;11.436;2023-04-28T05:15:14;97044.06;;;10.25
78917;BMP280;68315;48.608;11.436;2023-04-28T05:17:39;97053.97;;;10.28
78917;BMP280;68315;48.608;11.436;2023-04-28T05:20:05;97048.16;;;10.32
78917;BMP280;68315;48.608;11.436;2023-04-28T05:22:31;97062.50;;;10.38
78917;BMP280;68315;48.608;11.436;2023-04-28T05:24:56;97056.28;;;10.37
78917;BMP280;68315;48.608;11.436;2023-04-28T05:27:21;97043.09;;;10.36
78917;BMP280;68315;48.608;11.436;2023-04-28T05:29:47;97040.34;;;10.36
78917;BMP280;68315;48.608;11.436;2023-04-28T05:32:12;97041.88;;;10.44
78917;BMP280;68315;48.608;11.436;2023-04-28T05:34:37;97046.13;;;10.45
78917;BMP280;68315;48.608;11.436;2023-04-28T05:37:02;97041.25;;;10.38
78917;BMP280;68315;48.608;11.436;2023-04-28T05:39:28;97044.56;;;10.37
78917;BMP280;68315;48.608;11.436;2023-04-28T05:41:53;97040.38;;;10.56
78917;BMP280;68315;48.608;11.436;2023-04-28T05:44:18;97037.53;;;10.49
78917;BMP280;68315;48.608;11.436;2023-04-28T05:46:44;97040.88;;;10.34
78917;BMP280;68315;48.608;11.436;2023-04-28T05:49:09;97038.03;;;10.27
78917;BMP280;68315;48.608;11.436;2023-04-28T05:51:35;97028.50;;;10.28
78917;BMP280;68315;48.608;11.436;2023-04-28T05:54:00;97036.19;;;10.29
78917;BMP280;68315;48.608;11.436;2023-04-28T05:56:26;97027.25;;;10.29
78917;BMP280;68315;48.608;11.436;2023-04-28T05:58:51;97031.47;;;10.43
78917;BMP280;68315;48.608;11.436;2023-04-28T06:01:17;97025.50;;;10.52
78917;BMP280;68315;48.608;11.436;2023-04-28T06:03:42;97023.91;;;10.56
78917;BMP280;68315;48.608;11.436;2023-04-28T06:06:09;97035.50;;;10.62
78917;BMP280;68315;48.608;11.436;2023-04-28T06:08:35;97023.03;;;10.61
78917;BMP280;68315;48.608;11.436;2023-04-28T06:11:00;97021.66;;;10.68
78917;BMP280;68315;48.608;11.436;2023-04-28T06:13:26;97025.84;;;10.69
78917;BMP280;68315;48.608;11.436;2023-04-28T06:15:51;97025.84;;;10.69
78917;BMP280;68315;48.608;11.436;2023-04-28T06:18:17;97032.66;;;10.68
78917;BMP280;68315;48.608;11.436;2023-04-28T06:20:42;97045.31;;;10.71
78917;BMP280;68315;48.608;11.436;2023-04-28T06:23:08;97042.31;;;10.69
78917;BMP280;68315;48.608;11.436;2023-04-28T06:25:34;97050.06;;;10.70
78917;BMP280;68315;48.608;11.436;2023-04-28T06:28:00;97046.75;;;10.72
78917;BMP280;68315;48.608;11.436;2023-04-28T06:30:25;97050.25;;;10.72
78917;BMP280;68315;48.608;11.436;2023-04-28T06:32:51;97044.38;;;10.89
78917;BMP280;68315;48.608;11.436;2023-04-28T06:35:16;97041.78;;;11.04
78917;BMP280;68315;48.608;11.436;2023-04-28T06:37:42;97040.16;;;11.09
78917;BMP280;68315;48.608;11.436;2023-04-28T06:40:08;97049.78;;;11.02
78917;BMP280;68315;48.608;11.436;2023-04-28T06:42:33;97055.53;;;11.04
78917;BMP280;68315;48.608;11.436;2023-04-28T06:44:59;97057.47;;;10.96
78917;BMP280;68315;48.608;11.436;2023-04-28T06:47:24;97062.47;;;11.05
78917;BMP280;68315;48.608;11.436;2023-04-28T06:49:49;97064.88;;;11.09
78917;BMP280;68315;48.608;11.436;2023-04-28T06:52:15;97068.13;;;11.00
78917;BMP280;68315;48.608;11.436;2023-04-28T06:54:41;97075.22;;;10.95
78917;BMP280;68315;48.608;11.436;2023-04-28T06:57:06;97071.53;;;10.92
78917;BMP280;68315;48.608;11.436;2023-04-28T06:59:31;97067.03;;;11.03
78917;BMP280;68315;48.608;11.436;2023-04-28T07:01:57;97062.78;;;11.15
78917;BMP280;68315;48.608;11.436;2023-04-28T07:04:23;97075.94;;;11.16
78917;BMP280;68315;48.608;11.436;2023-04-28T07:06:48;97082.13;;;11.09
78917;BMP280;68315;48.608;11.436;2023-04-28T07:09:13;97086.97;;;10.96
78917;BMP280;68315;48.608;11.436;2023-04-28T07:11:40;97092.38;;;10.88
78917;BMP280;68315;48.608;11.436;2023-04-28T07:14:05;97088.66;;;10.85
78917;BMP280;68315;48.608;11.436;2023-04-28T07:16:32;97086.50;;;10.84
78917;BMP280;68315;48.608;11.436;2023-04-28T07:18:57;97089.84;;;10.90
78917;BMP280;68315;48.608;11.436;2023-04-28T07:21:23;97079.84;;;11.00
78917;BMP280;68315;48.608;11.436;2023-04-28T07:23:48;97081.16;;;10.99
78917;BMP280;68315;48.608;11.436;2023-04-28T07:26:13;97081.06;;;10.91
78917;BMP280;68315;48.608;11.436;2023-04-28T07:28:41;97075.22;;;10.95
78917;BMP280;68315;48.608;11.436;2023-04-28T07:31:06;97075.66;;;10.99
78917;BMP280;68315;48.608;11.436;2023-04-28T07:33:32;97074.53;;;11.02
78917;BMP280;68315;48.608;11.436;2023-04-28T07:35:57;97061.97;;;11.07
78917;BMP280;68315;48.608;11.436;2023-04-28T07:38:22;97067.13;;;11.10
78917;BMP280;68315;48.608;11.436;2023-04-28T07:40:48;97056.69;;;11.16
78917;BMP280;68315;48.608;11.436;2023-04-28T07:43:13;97053.78;;;11.14
78917;BMP280;68315;48.608;11.436;2023-04-28T07:45:39;97045.19;;;11.18
78917;BMP280;68315;48.608;11.436;2023-04-28T07:48:05;97046.31;;;11.22
78917;BMP280;68315;48.608;11.436;2023-04-28T07:50:30;97043.28;;;11.33
78917;BMP280;68315;48.608;11.436;2023-04-28T07:52:57;97036.00;;;11.36
78917;BMP280;68315;48.608;11.436;2023-04-28T07:55:23;97042.28;;;11.44
78917;BMP280;68315;48.608;11.436;2023-04-28T07:57:48;97031.31;;;11.51
78917;BMP280;68315;48.608;11.436;2023-04-28T08:00:14;97031.91;;;11.57
78917;BMP280;68315;48.608;11.436;2023-04-28T08:02:39;97027.72;;;11.64
78917;BMP280;68315;48.608;11.436;2023-04-28T08:05:05;97020.63;;;11.76
78917;BMP280;68315;48.608;11.436;2023-04-28T08:07:31;97015.91;;;11.84
78917;BMP280;68315;48.608;11.436;2023-04-28T08:09:57;97024.00;;;11.90
78917;BMP280;68315;48.608;11.436;2023-04-28T08:12:22;97030.66;;;11.94
78917;BMP280;68315;48.608;11.436;2023-04-28T08:14:47;97025.66;;;11.93
78917;BMP280;68315;48.608;11.436;2023-04-28T08:17:13;97013.97;;;12.00
78917;BMP280;68315;48.608;11.436;2023-04-28T08:19:38;97015.66;;;12.03
78917;BMP280;68315;48.608;11.436;2023-04-28T08:22:03;97016.56;;;12.05
78917;BMP280;68315;48.608;11.436;2023-04-28T08:24:31;97015.06;;;12.04
78917;BMP280;68315;48.608;11.436;2023-04-28T08:26:59;97014.31;;;12.04
78917;BMP280;68315;48.608;11.436;2023-04-28T08:29:31;97022.03;;;11.98
78917;BMP280;68315;48.608;11.436;2023-04-28T08:31:56;97018.00;;;11.99
78917;BMP280;68315;48.608;11.436;2023-04-28T08:34:22;97014.47;;;11.91
78917;BMP280;68315;48.608;11.436;2023-04-28T08:36:48;97011.91;;;11.93
78917;BMP280;68315;48.608;11.436;2023-04-28T08:39:13;97015.78;;;11.97
78917;BMP280;68315;48.608;11.436;2023-04-28T08:41:38;97020.38;;;11.95
78917;BMP280;68315;48.608;11.436;2023-04-28T08:44:08;97017.81;;;12.04
78917;BMP280;68315;48.608;11.436;2023-04-28T08:46:34;97005.00;;;12.07
78917;BMP280;68315;48.608;11.436;2023-04-28T08:49:00;96996.25;;;12.23
78917;BMP280;68315;48.608;11.436;2023-04-28T08:51:33;96999.00;;;12.23
78917;BMP280;68315;48.608;11.436;2023-04-28T08:54:02;96993.13;;;12.27
78917;BMP280;68315;48.608;11.436;2023-04-28T08:56:31;96991.84;;;12.28
78917;BMP280;68315;48.608;11.436;2023-04-28T08:59:01;96991.13;;;12.35
78917;BMP280;68315;48.608;11.436;2023-04-28T09:01:26;96992.78;;;12.38
78917;BMP280;68315;48.608;11.436;2023-04-28T09:03:53;96994.78;;;12.30
78917;BMP280;68315;48.608;11.436;2023-04-28T09:06:18;96990.88;;;12.18
78917;BMP280;68315;48.608;11.436;2023-04-28T09:08:43;96992.38;;;12.26
78917;BMP280;68315;48.608;11.436;2023-04-28T09:11:09;96998.09;;;12.28
78917;BMP280;68315;48.608;11.436;2023-04-28T09:13:36;96988.34;;;12.20
78917;BMP280;68315;48.608;11.436;2023-04-28T09:16:02;96987.97;;;12.16
78917;BMP280;68315;48.608;11.436;2023-04-28T09:18:29;96982.25;;;12.14
78917;BMP280;68315;48.608;11.436;2023-04-28T09:21:07;96981.19;;;12.17
78917;BMP280;68315;48.608;11.436;2023-04-28T09:23:33;96988.88;;;12.18
78917;BMP280;68315;48.608;11.436;2023-04-28T09:26:04;96988.72;;;12.24
78917;BMP280;68315;48.608;11.436;2023-04-28T09:28:31;96991.28;;;12.22
78917;BMP280;68315;48.608;11.436;2023-04-28T09:30:57;96980.84;;;12.35
78917;BMP280;68315;48.608;11.436;2023-04-28T09:33:22;96981.97;;;12.47
78917;BMP280;68315;48.608;11.436;2023-04-28T09:35:48;96980.13;;;12.42
78917;BMP280;68315;48.608;11.436;2023-04-28T09:38:14;96972.75;;;12.30
78917;BMP280;68315;48.608;11.436;2023-04-28T09:43:30;96983.03;;;12.22
78917;BMP280;68315;48.608;11.436;2023-04-28T09:45:58;96974.00;;;12.21
78917;BMP280;68315;48.608;11.436;2023-04-28T09:48:37;96972.53;;;12.20
78917;BMP280;68315;48.608;11.436;2023-04-28T09:51:04;96979.34;;;12.27
78917;BMP280;68315;48.608;11.436;2023-04-28T09:53:31;96978.81;;;12.28
78917;BMP280;68315;48.608;11.436;2023-04-28T09:55:59;96990.78;;;12.31
78917;BMP280;68315;48.608;11.436;2023-04-28T09:58:26;96994.09;;;12.37
78917;BMP280;68315;48.608;11.436;2023-04-28T10:00:53;96985.09;;;12.36
78917;BMP280;68315;48.608;11.436;2023-04-28T10:03:23;96992.03;;;12.30
78917;BMP280;68315;48.608;11.436;2023-04-28T10:05:48;96984.84;;;12.19
78917;BMP280;68315;48.608;11.436;2023-04-28T10:08:16;96994.03;;;12.14
78917;BMP280;68315;48.608;11.436;2023-04-28T10:10:42;96986.84;;;12.11
78917;BMP280;68315;48.608;11.436;2023-04-28T10:13:08;96990.56;;;12.29
78917;BMP280;68315;48.608;11.436;2023-04-28T10:15:34;96989.44;;;12.32
78917;BMP280;68315;48.608;11.436;2023-04-28T10:18:01;96988.16;;;12.25
78917;BMP280;68315;48.608;11.436;2023-04-28T10:20:28;96987.84;;;12.44
78917;BMP280;68315;48.608;11.436;2023-04-28T10:23:30;96983.22;;;12.31
78917;BMP280;68315;48.608;11.436;2023-04-28T10:25:59;96982.50;;;12.31
78917;BMP280;68315;48.608;11.436;2023-04-28T10:28:25;96973.72;;;12.47
78917;BMP280;68315;48.608;11.436;2023-04-28T10:31:10;96973.88;;;12.49
78917;BMP280;68315;48.608;11.436;2023-04-28T10:33:36;96974.63;;;12.57
78917;BMP280;68315;48.608;11.436;2023-04-28T10:36:02;96971.00;;;12.70
78917;BMP280;68315;48.608;11.436;2023-04-28T10:38:28;96973.34;;;12.66
78917;BMP280;68315;48.608;11.436;2023-04-28T10:40:54;96968.56;;;12.74
78917;BMP280;68315;48.608;11.436;2023-04-28T10:56:26;96957.34;;;13.17
78917;BMP280;68315;48.608;11.436;2023-04-28T10:58:55;96948.88;;;13.23
78917;BMP280;68315;48.608;11.436;2023-04-28T11:16:58;96942.44;;;13.35
78917;BMP280;68315;48.608;11.436;2023-04-28T11:19:32;96948.28;;;13.39
78917;BMP280;68315;48.608;11.436;2023-04-28T11:21:59;96945.50;;;13.47
78917;BMP280;68315;48.608;11.436;2023-04-28T11:24:26;96947.31;;;13.60
78917;BMP280;68315;48.608;11.436;2023-04-28T11:26:53;96937.13;;;13.70
78917;BMP280;68315;48.608;11.436;2023-04-28T11:31:55;96932.16;;;14.08
78917;BMP280;68315;48.608;11.436;2023-04-28T11:34:20;96940.06;;;14.11
78917;BMP280;68315;48.608;11.436;2023-04-28T11:36:46;96935.88;;;14.03
78917;BMP280;68315;48.608;11.436;2023-04-28T11:39:12;96937.69;;;14.08
78917;BMP280;68315;48.608;11.436;2023-04-28T11:41:40;96936.50;;;14.18
78917;BMP280;68315;48.608;11.436;2023-04-28T11:44:14;96944.81;;;14.18
78917;BMP280;68315;48.608;11.436;2023-04-28T11:46:47;96927.25;;;14.23
78917;BMP280;68315;48.608;11.436;2023-04-28T11:49:19;96951.03;;;14.26
78917;BMP280;68315;48.608;11.436;2023-04-28T11:51:45;96955.09;;;14.25
78917;BMP280;68315;48.608;11.436;2023-04-28T11:54:12;96958.41;;;14.24
78917;BMP280;68315;48.608;11.436;2023-04-28T11:56:40;96940.69;;;14.27
78917;BMP280;68315;48.608;11.436;2023-04-28T11:59:09;96941.00;;;14.38
78917;BMP280;68315;48.608;11.436;2023-04-28T12:01:53;96940.72;;;14.52
78917;BMP280;68315;48.608;11.436;2023-04-28T12:04:45;96953.84;;;14.68
78917;BMP280;68315;48.608;11.436;2023-04-28T12:07:14;96944.91;;;14.77
78917;BMP280;68315;48.608;11.436;2023-04-28T12:09:43;96942.44;;;15.06
78917;BMP280;68315;48.608;11.436;2023-04-28T12:12:11;96936.19;;;15.22
78917;BMP280;68315;48.608;11.436;2023-04-28T12:14:57;96935.44;;;15.22
78917;BMP280;68315;48.608;11.436;2023-04-28T12:20:05;96932.53;;;15.37
78917;BMP280;68315;48.608;11.436;2023-04-28T12:22:47;96937.09;;;15.42
78917;BMP280;68315;48.608;11.436;2023-04-28T12:25:15;96929.09;;;15.46
78917;BMP280;68315;48.608;11.436;2023-04-28T12:30:29;96926.31;;;15.63
78917;BMP280;68315;48.608;11.436;2023-04-28T12:32:58;96927.50;;;15.70
78917;BMP280;68315;48.608;11.436;2023-04-28T12:35:27;96921.03;;;15.84
78917;BMP280;68315;48.608;11.436;2023-04-28T12:37:58;96916.06;;;16.09
78917;BMP280;68315;48.608;11.436;2023-04-28T12:40:27;96917.09;;;16.14
78917;BMP280;68315;48.608;11.436;2023-04-28T12:42:58;96926.00;;;16.12
78917;BMP280;68315;48.608;11.436;2023-04-28T12:45:23;96930.81;;;16.12
78917;BMP280;68315;48.608;11.436;2023-04-28T12:47:52;96925.94;;;16.03
78917;BMP280;68315;48.608;11.436;2023-04-28T12:50:21;96925.78;;;16.01
78917;BMP280;68315;48.608;11.436;2023-04-28T12:52:53;96925.94;;;16.03
78917;BMP280;68315;48.608;11.436;2023-04-28T12:58:13;96932.34;;;15.96
78917;BMP280;68315;48.608;11.436;2023-04-28T13:01:22;96927.31;;;15.85
78917;BMP280;68315;48.608;11.436;2023-04-28T13:06:41;96917.00;;;15.68
78917;BMP280;68315;48.608;11.436;2023-04-28T13:09:32;96926.09;;;15.52
78917;BMP280;68315;48.608;11.436;2023-04-28T13:11:57;96916.16;;;15.49
78917;BMP280;68315;48.608;11.436;2023-04-28T13:14:24;96921.47;;;15.37
78917;BMP280;68315;48.608;11.436;2023-04-28T13:16:51;96916.00;;;15.29
78917;BMP280;68315;48.608;11.436;2023-04-28T13:19:16;96916.97;;;15.24
78917;BMP280;68315;48.608;11.436;2023-04-28T13:21:43;96927.75;;;15.20
78917;BMP280;68315;48.608;11.436;2023-04-28T13:24:09;96918.03;;;15.12
78917;BMP280;68315;48.608;11.436;2023-04-28T13:26:35;96927.31;;;15.07
78917;BMP280;68315;48.608;11.436;2023-04-28T13:29:02;96929.34;;;15.06
78917;BMP280;68315;48.608;11.436;2023-04-28T13:31:28;96915.50;;;15.06
78917;BMP280;68315;48.608;11.436;2023-04-28T13:33:56;96915.19;;;15.02
78917;BMP280;68315;48.608;11.436;2023-04-28T13:36:22;96914.94;;;15.08
78917;BMP280;68315;48.608;11.436;2023-04-28T13:38:48;96926.59;;;15.06
78917;BMP280;68315;48.608;11.436;2023-04-28T13:41:15;96906.34;;;15.04
78917;BMP280;68315;48.608;11.436;2023-04-28T13:43:40;96919.97;;;15.02
78917;BMP280;68315;48.608;11.436;2023-04-28T13:46:06;96917.94;;;15.02
78917;BMP280;68315;48.608;11.436;2023-04-28T13:48:36;96912.59;;;15.04
78917;BMP280;68315;48.608;11.436;2023-04-28T13:51:06;96909.00;;;15.11
78917;BMP280;68315;48.608;11.436;2023-04-28T13:53:33;96918.59;;;15.10
78917;BMP280;68315;48.608;11.436;2023-04-28T13:55:59;96911.44;;;15.07
78917;BMP280;68315;48.608;11.436;2023-04-28T13:58:27;96912.16;;;15.08
78917;BMP280;68315;48.608;11.436;2023-04-28T14:00:53;96906.97;;;15.12
78917;BMP280;68315;48.608;11.436;2023-04-28T14:03:25;96910.22;;;15.18
78917;BMP280;68315;48.608;11.436;2023-04-28T14:05:54;96912.00;;;15.23
78917;BMP280;68315;48.608;11.436;2023-04-28T14:08:21;96905.09;;;15.31
78917;BMP280;68315;48.608;11.436;2023-04-28T14:10:57;96914.41;;;15.26
78917;BMP280;68315;48.608;11.436;2023-04-28T14:13:22;96917.72;;;15.25
78917;BMP280;68315;48.608;11.436;2023-04-28T14:15:51;96909.00;;;15.28
78917;BMP280;68315;48.608;11.436;2023-04-28T14:18:19;96902.16;;;15.29
78917;BMP280;68315;48.608;11.436;2023-04-28T14:21:04;96913.66;;;15.26
78917;BMP280;68315;48.608;11.436;2023-04-28T14:53:54;96929.63;;;14.93
78917;BMP280;68315;48.608;11.436;2023-04-28T14:56:26;96924.69;;;14.92
78917;BMP280;68315;48.608;11.436;2023-04-28T14:58:54;96916.97;;;14.90
78917;BMP280;68315;48.608;11.436;2023-04-28T15:01:19;96918.72;;;14.78
78917;BMP280;68315;48.608;11.436;2023-04-28T15:03:45;96926.19;;;14.68
78917;BMP280;68315;48.608;11.436;2023-04-28T15:06:10;96924.53;;;14.65
78917;BMP280;68315;48.608;11.436;2023-04-28T15:08:36;96919.09;;;14.58
78917;BMP280;68315;48.608;11.436;2023-04-28T15:11:04;96922.59;;;14.58
78917;BMP280;68315;48.608;11.436;2023-04-28T15:13:29;96920.22;;;14.55